sensor_id;sensor_type;location;lat;lon;timestamp;temperature;humidity
74869;DHT22;63419;42.262;12.210;2023-05-23T00:02:00;13.40;99.90
74869;DHT22;63419;42.262;12.210;2023-05-23T00:04:27;12.40;99.90
74869;DHT22;63419;42.262;12.210;2023-05-23T00:06:55;12.30;99.90
74869;DHT22;63419;42.262;12.210;2023-05-23T00:09:24;12.30;99.90
74869;DHT22;63419;42.262;12.210;2023-05-23T00:11:51;12.30;99.90
74869;DHT22;63419;42.262;12.210;2023-05-23T00:14:18;12.30;99.90
74869;DHT22;63419;42.262;12.210;2023-05-23T00:16:46;12.20;99.90
74869;DHT22;63419;42.262;12.210;2023-05-23T00:19:15;12.10;99.90
74869;DHT22;63419;42.262;12.210;2023-05-23T00:21:46;12.20;99.90
74869;DHT22;63419;42.262;12.210;2023-05-23T00:24:14;12.10;99.90
74869;DHT22;63419;42.262;12.210;2023-05-23T00:26:45;12.20;99.90
74869;DHT22;63419;42.262;12.210;2023-05-23T00:29:14;12.30;99.90
74869;DHT22;63419;42.262;12.210;2023-05-23T00:31:43;12.50;99.90
74869;DHT22;63419;42.262;12.210;2023-05-23T00:34:13;12.70;99.90
74869;DHT22;63419;42.262;12.210;2023-05-23T00:36:43;12.80;99.90
74869;DHT22;63419;42.262;12.210;2023-05-23T00:39:13;12.30;99.90
74869;DHT22;63419;42.262;12.210;2023-05-23T00:41:46;11.90;99.90
74869;DHT22;63419;42.262;12.210;2023-05-23T00:44:17;11.50;99.90
74869;DHT22;63419;42.262;12.210;2023-05-23T00:46:51;11.40;99.90
74869;DHT22;63419;42.262;12.210;2023-05-23T00:49:21;11.50;99.90
74869;DHT22;63419;42.262;12.210;2023-05-23T00:51:50;11.50;99.90
74869;DHT22;63419;42.262;12.210;2023-05-23T00:54:25;11.70;99.90
74869;DHT22;63419;42.262;12.210;2023-05-23T00:56:55;11.70;99.90
74869;DHT22;63419;42.262;12.210;2023-05-23T00:59:24;11.80;99.90
74869;DHT22;63419;42.262;12.210;2023-05-23T01:01:54;11.80;99.90
74869;DHT22;63419;42.262;12.210;2023-05-23T01:04:23;11.90;99.90
74869;DHT22;63419;42.262;12.210;2023-05-23T01:06:54;12.00;99.90
74869;DHT22;63419;42.262;12.210;2023-05-23T01:09:23;12.20;99.90
74869;DHT22;63419;42.262;12.210;2023-05-23T01:14:44;12.40;99.90
74869;DHT22;63419;42.262;12.210;2023-05-23T01:17:22;12.50;99.90
74869;DHT22;63419;42.262;12.210;2023-05-23T01:19:59;12.70;99.90
74869;DHT22;63419;42.262;12.210;2023-05-23T01:30:20;12.90;99.90
74869;DHT22;63419;42.262;12.210;2023-05-23T01:32:50;13.00;99.90
74869;DHT22;63419;42.262;12.210;2023-05-23T01:35:24;13.10;99.90
74869;DHT22;63419;42.262;12.210;2023-05-23T01:37:54;13.10;99.90
74869;DHT22;63419;42.262;12.210;2023-05-23T01:40:23;13.20;99.90
74869;DHT22;63419;42.262;12.210;2023-05-23T01:42:52;13.20;99.90
74869;DHT22;63419;42.262;12.210;2023-05-23T01:45:25;13.30;99.90
74869;DHT22;63419;42.262;12.210;2023-05-23T01:47:55;13.30;99.90
74869;DHT22;63419;42.262;12.210;2023-05-23T01:50:24;13.40;99.90
74869;DHT22;63419;42.262;12.210;2023-05-23T01:52:54;13.40;99.90
74869;DHT22;63419;42.262;12.210;2023-05-23T01:55:24;13.40;99.90
74869;DHT22;63419;42.262;12.210;2023-05-23T01:57:54;13.40;99.90
74869;DHT22;63419;42.262;12.210;2023-05-23T02:00:23;13.40;99.90
74869;DHT22;63419;42.262;12.210;2023-05-23T02:02:51;13.40;99.90
74869;DHT22;63419;42.262;12.210;2023-05-23T02:05:19;13.40;99.90
74869;DHT22;63419;42.262;12.210;2023-05-23T02:07:46;13.40;99.90
74869;DHT22;63419;42.262;12.210;2023-05-23T02:10:16;13.30;99.90
74869;DHT22;63419;42.262;12.210;2023-05-23T02:12:45;13.30;99.90
74869;DHT22;63419;42.262;12.210;2023-05-23T02:15:12;13.30;99.90
74869;DHT22;63419;42.262;12.210;2023-05-23T02:17:39;13.30;99.90
74869;DHT22;63419;42.262;12.210;2023-05-23T02:20:08;13.30;99.90
74869;DHT22;63419;42.262;12.210;2023-05-23T02:22:36;13.30;99.90
74869;DHT22;63419;42.262;12.210;2023-05-23T02:25:04;13.30;99.90
74869;DHT22;63419;42.262;12.210;2023-05-23T02:27:33;13.30;99.90
74869;DHT22;63419;42.262;12.210;2023-05-23T02:30:00;13.30;99.90
74869;DHT22;63419;42.262;12.210;2023-05-23T02:32:27;13.30;99.90
74869;DHT22;63419;42.262;12.210;2023-05-23T02:34:56;13.40;99.90
74869;DHT22;63419;42.262;12.210;2023-05-23T02:37:24;13.40;99.90
74869;DHT22;63419;42.262;12.210;2023-05-23T02:39:51;13.40;99.90
74869;DHT22;63419;42.262;12.210;2023-05-23T02:42:18;13.40;99.90
74869;DHT22;63419;42.262;12.210;2023-05-23T02:44:46;13.40;99.90
74869;DHT22;63419;42.262;12.210;2023-05-23T02:47:13;13.40;99.90
74869;DHT22;63419;42.262;12.210;2023-05-23T02:49:40;13.50;99.90
74869;DHT22;63419;42.262;12.210;2023-05-23T02:52:08;13.50;99.90
74869;DHT22;63419;42.262;12.210;2023-05-23T02:54:35;13.60;99.90
74869;DHT22;63419;42.262;12.210;2023-05-23T02:57:03;13.60;99.90
74869;DHT22;63419;42.262;12.210;2023-05-23T02:59:30;13.60;99.90
74869;DHT22;63419;42.262;12.210;2023-05-23T03:01:58;13.50;99.90
74869;DHT22;63419;42.262;12.210;2023-05-23T03:04:26;13.50;99.90
74869;DHT22;63419;42.262;12.210;2023-05-23T03:06:53;13.50;99.90
74869;DHT22;63419;42.262;12.210;2023-05-23T03:09:21;13.50;99.90
74869;DHT22;63419;42.262;12.210;2023-05-23T03:11:48;13.30;99.90
74869;DHT22;63419;42.262;12.210;2023-05-23T03:14:15;12.90;99.90
74869;DHT22;63419;42.262;12.210;2023-05-23T03:16:43;12.40;99.90
74869;DHT22;63419;42.262;12.210;2023-05-23T03:19:11;12.40;99.90
74869;DHT22;63419;42.262;12.210;2023-05-23T03:21:38;12.10;99.90
74869;DHT22;63419;42.262;12.210;2023-05-23T03:24:06;12.00;99.90
74869;DHT22;63419;42.262;12.210;2023-05-23T03:26:34;11.90;99.90
74869;DHT22;63419;42.262;12.210;2023-05-23T03:29:02;11.90;99.90
74869;DHT22;63419;42.262;12.210;2023-05-23T03:31:29;11.90;99.90
74869;DHT22;63419;42.262;12.210;2023-05-23T03:33:56;11.90;99.90
74869;DHT22;63419;42.262;12.210;2023-05-23T03:36:25;11.90;99.90
74869;DHT22;63419;42.262;12.210;2023-05-23T03:38:54;11.90;99.90
74869;DHT22;63419;42.262;12.210;2023-05-23T03:41:21;11.90;99.90
74869;DHT22;63419;42.262;12.210;2023-05-23T03:43:48;11.80;99.90
74869;DHT22;63419;42.262;12.210;2023-05-23T03:46:15;12.00;99.90
74869;DHT22;63419;42.262;12.210;2023-05-23T03:48:43;11.70;99.90
74869;DHT22;63419;42.262;12.210;2023-05-23T03:51:10;11.70;99.90
74869;DHT22;63419;42.262;12.210;2023-05-23T03:53:39;11.90;99.90
74869;DHT22;63419;42.262;12.210;2023-05-23T03:56:06;12.60;99.90
74869;DHT22;63419;42.262;12.210;2023-05-23T03:58:34;12.70;99.90
74869;DHT22;63419;42.262;12.210;2023-05-23T04:01:01;12.70;99.90
74869;DHT22;63419;42.262;12.210;2023-05-23T04:03:29;12.70;99.90
74869;DHT22;63419;42.262;12.210;2023-05-23T04:05:59;12.80;99.90
74869;DHT22;63419;42.262;12.210;2023-05-23T04:08:27;12.80;99.90
74869;DHT22;63419;42.262;12.210;2023-05-23T04:11:01;12.90;99.90
74869;DHT22;63419;42.262;12.210;2023-05-23T04:13:28;12.90;99.90
74869;DHT22;63419;42.262;12.210;2023-05-23T04:15:57;12.90;99.90
74869;DHT22;63419;42.262;12.210;2023-05-23T04:18:29;12.90;99.90
74869;DHT22;63419;42.262;12.210;2023-05-23T04:20:56;13.00;99.90
74869;DHT22;63419;42.262;12.210;2023-05-23T04:23:23;12.90;99.90
74869;DHT22;63419;42.262;12.210;2023-05-23T04:25:51;13.00;99.90
74869;DHT22;63419;42.262;12.210;2023-05-23T04:28:18;13.00;99.90
74869;DHT22;63419;42.262;12.210;2023-05-23T04:30:45;13.00;99.90
74869;DHT22;63419;42.262;12.210;2023-05-23T04:33:16;13.10;99.90
74869;DHT22;63419;42.262;12.210;2023-05-23T04:35:44;13.20;99.90
74869;DHT22;63419;42.262;12.210;2023-05-23T04:38:11;13.30;99.90
74869;DHT22;63419;42.262;12.210;2023-05-23T04:40:39;13.20;99.90
74869;DHT22;63419;42.262;12.210;2023-05-23T04:43:07;13.40;99.90
74869;DHT22;63419;42.262;12.210;2023-05-23T04:45:35;13.50;99.90
74869;DHT22;63419;42.262;12.210;2023-05-23T04:48:03;13.50;99.90
74869;DHT22;63419;42.262;12.210;2023-05-23T04:50:30;13.60;99.90
74869;DHT22;63419;42.262;12.210;2023-05-23T04:53:00;13.60;99.90
74869;DHT22;63419;42.262;12.210;2023-05-23T04:55:27;13.70;99.90
74869;DHT22;63419;42.262;12.210;2023-05-23T04:57:54;13.80;99.90
74869;DHT22;63419;42.262;12.210;2023-05-23T05:00:22;13.90;99.90
74869;DHT22;63419;42.262;12.210;2023-05-23T05:02:50;14.00;99.90
74869;DHT22;63419;42.262;12.210;2023-05-23T05:05:17;13.90;99.90
74869;DHT22;63419;42.262;12.210;2023-05-23T05:07:44;13.90;99.90
74869;DHT22;63419;42.262;12.210;2023-05-23T05:10:12;14.10;99.90
74869;DHT22;63419;42.262;12.210;2023-05-23T05:12:44;14.20;99.90
74869;DHT22;63419;42.262;12.210;2023-05-23T05:15:12;14.10;99.90
74869;DHT22;63419;42.262;12.210;2023-05-23T05:17:40;14.30;99.90
74869;DHT22;63419;42.262;12.210;2023-05-23T05:20:08;14.50;99.90
74869;DHT22;63419;42.262;12.210;2023-05-23T05:22:37;14.70;99.90
74869;DHT22;63419;42.262;12.210;2023-05-23T05:25:09;14.90;99.90
74869;DHT22;63419;42.262;12.210;2023-05-23T05:27:37;15.00;99.90
74869;DHT22;63419;42.262;12.210;2023-05-23T05:30:06;15.10;99.90
74869;DHT22;63419;42.262;12.210;2023-05-23T05:32:35;15.20;99.90
74869;DHT22;63419;42.262;12.210;2023-05-23T05:35:03;15.30;99.90
74869;DHT22;63419;42.262;12.210;2023-05-23T05:37:30;15.40;99.90
74869;DHT22;63419;42.262;12.210;2023-05-23T05:39:58;15.50;99.90
74869;DHT22;63419;42.262;12.210;2023-05-23T05:42:31;15.50;99.90
74869;DHT22;63419;42.262;12.210;2023-05-23T05:44:59;15.60;99.90
74869;DHT22;63419;42.262;12.210;2023-05-23T05:47:26;15.70;99.90
74869;DHT22;63419;42.262;12.210;2023-05-23T05:49:54;15.80;99.90
74869;DHT22;63419;42.262;12.210;2023-05-23T05:52:21;15.90;99.90
74869;DHT22;63419;42.262;12.210;2023-05-23T05:54:49;16.00;99.90
74869;DHT22;63419;42.262;12.210;2023-05-23T05:57:16;16.10;99.90
74869;DHT22;63419;42.262;12.210;2023-05-23T05:59:44;16.10;99.90
74869;DHT22;63419;42.262;12.210;2023-05-23T06:02:11;16.20;99.90
74869;DHT22;63419;42.262;12.210;2023-05-23T06:04:38;16.30;99.90
74869;DHT22;63419;42.262;12.210;2023-05-23T06:07:06;16.40;99.90
74869;DHT22;63419;42.262;12.210;2023-05-23T06:09:33;16.60;99.90
74869;DHT22;63419;42.262;12.210;2023-05-23T06:12:02;16.70;99.90
74869;DHT22;63419;42.262;12.210;2023-05-23T06:14:29;16.80;99.90
74869;DHT22;63419;42.262;12.210;2023-05-23T06:16:56;16.90;99.90
74869;DHT22;63419;42.262;12.210;2023-05-23T06:19:24;17.00;99.90
74869;DHT22;63419;42.262;12.210;2023-05-23T06:21:52;17.00;99.90
74869;DHT22;63419;42.262;12.210;2023-05-23T06:24:21;16.90;99.90
74869;DHT22;63419;42.262;12.210;2023-05-23T06:26:49;17.10;99.90
74869;DHT22;63419;42.262;12.210;2023-05-23T06:29:16;17.00;99.90
74869;DHT22;63419;42.262;12.210;2023-05-23T06:31:43;17.10;99.90
74869;DHT22;63419;42.262;12.210;2023-05-23T06:34:11;17.00;99.90
74869;DHT22;63419;42.262;12.210;2023-05-23T06:36:39;17.00;99.90
74869;DHT22;63419;42.262;12.210;2023-05-23T06:39:08;16.90;99.90
74869;DHT22;63419;42.262;12.210;2023-05-23T06:41:35;16.90;99.90
74869;DHT22;63419;42.262;12.210;2023-05-23T06:44:04;17.00;99.90
74869;DHT22;63419;42.262;12.210;2023-05-23T06:46:32;17.00;99.90
74869;DHT22;63419;42.262;12.210;2023-05-23T06:48:59;17.20;99.90
74869;DHT22;63419;42.262;12.210;2023-05-23T06:51:40;17.50;99.90
74869;DHT22;63419;42.262;12.210;2023-05-23T06:54:07;17.60;99.90
74869;DHT22;63419;42.262;12.210;2023-05-23T06:56:35;17.90;99.90
74869;DHT22;63419;42.262;12.210;2023-05-23T06:59:02;17.80;99.90
74869;DHT22;63419;42.262;12.210;2023-05-23T07:01:30;17.50;99.90
74869;DHT22;63419;42.262;12.210;2023-05-23T07:03:57;17.80;99.90
74869;DHT22;63419;42.262;12.210;2023-05-23T07:06:25;17.90;99.90
74869;DHT22;63419;42.262;12.210;2023-05-23T07:08:53;17.70;99.90
74869;DHT22;63419;42.262;12.210;2023-05-23T07:11:21;17.70;99.90
74869;DHT22;63419;42.262;12.210;2023-05-23T07:13:48;18.00;99.90
74869;DHT22;63419;42.262;12.210;2023-05-23T07:16:16;17.80;99.90
74869;DHT22;63419;42.262;12.210;2023-05-23T07:18:43;18.00;99.90
74869;DHT22;63419;42.262;12.210;2023-05-23T07:21:11;18.10;99.90
74869;DHT22;63419;42.262;12.210;2023-05-23T07:23:39;18.20;99.90
74869;DHT22;63419;42.262;12.210;2023-05-23T07:26:07;18.30;99.90
74869;DHT22;63419;42.262;12.210;2023-05-23T07:28:35;18.30;99.90
74869;DHT22;63419;42.262;12.210;2023-05-23T07:31:03;18.70;99.90
74869;DHT22;63419;42.262;12.210;2023-05-23T07:33:31;18.90;99.90
74869;DHT22;63419;42.262;12.210;2023-05-23T07:36:00;19.00;99.90
74869;DHT22;63419;42.262;12.210;2023-05-23T07:38:28;18.50;99.90
74869;DHT22;63419;42.262;12.210;2023-05-23T07:40:55;18.30;99.90
74869;DHT22;63419;42.262;12.210;2023-05-23T07:43:36;18.60;99.90
74869;DHT22;63419;42.262;12.210;2023-05-23T07:46:03;18.70;99.90
74869;DHT22;63419;42.262;12.210;2023-05-23T07:48:31;18.70;99.90
74869;DHT22;63419;42.262;12.210;2023-05-23T07:50:59;18.60;99.90
74869;DHT22;63419;42.262;12.210;2023-05-23T07:53:27;18.60;99.90
74869;DHT22;63419;42.262;12.210;2023-05-23T07:55:54;18.90;99.90
74869;DHT22;63419;42.262;12.210;2023-05-23T07:58:22;19.30;99.90
74869;DHT22;63419;42.262;12.210;2023-05-23T08:00:49;19.30;99.90
74869;DHT22;63419;42.262;12.210;2023-05-23T08:03:19;19.60;99.90
74869;DHT22;63419;42.262;12.210;2023-05-23T08:05:46;19.40;99.90
74869;DHT22;63419;42.262;12.210;2023-05-23T08:08:13;19.40;99.90
74869;DHT22;63419;42.262;12.210;2023-05-23T08:10:41;19.30;99.90
74869;DHT22;63419;42.262;12.210;2023-05-23T08:13:09;19.10;99.90
74869;DHT22;63419;42.262;12.210;2023-05-23T08:15:36;19.30;99.90
74869;DHT22;63419;42.262;12.210;2023-05-23T08:18:04;19.20;99.90
74869;DHT22;63419;42.262;12.210;2023-05-23T08:20:31;19.10;99.90
74869;DHT22;63419;42.262;12.210;2023-05-23T08:23:00;19.30;99.90
74869;DHT22;63419;42.262;12.210;2023-05-23T08:25:28;19.60;99.90
74869;DHT22;63419;42.262;12.210;2023-05-23T08:27:57;19.70;99.90
74869;DHT22;63419;42.262;12.210;2023-05-23T08:30:25;20.00;99.90
74869;DHT22;63419;42.262;12.210;2023-05-23T08:32:54;20.30;99.90
74869;DHT22;63419;42.262;12.210;2023-05-23T08:35:22;20.40;99.90
74869;DHT22;63419;42.262;12.210;2023-05-23T08:37:50;20.80;99.90
74869;DHT22;63419;42.262;12.210;2023-05-23T08:40:20;21.00;99.90
74869;DHT22;63419;42.262;12.210;2023-05-23T08:42:49;20.40;99.90
74869;DHT22;63419;42.262;12.210;2023-05-23T08:45:17;20.00;99.90
74869;DHT22;63419;42.262;12.210;2023-05-23T08:47:45;20.30;99.90
74869;DHT22;63419;42.262;12.210;2023-05-23T08:50:15;20.70;99.90
74869;DHT22;63419;42.262;12.210;2023-05-23T08:52:49;20.80;99.90
74869;DHT22;63419;42.262;12.210;2023-05-23T08:55:25;21.10;99.90
74869;DHT22;63419;42.262;12.210;2023-05-23T08:57:57;20.90;99.90
74869;DHT22;63419;42.262;12.210;2023-05-23T09:00:26;21.00;99.90
74869;DHT22;63419;42.262;12.210;2023-05-23T09:02:56;20.90;99.90
74869;DHT22;63419;42.262;12.210;2023-05-23T09:05:25;21.10;99.90
74869;DHT22;63419;42.262;12.210;2023-05-23T09:07:53;21.40;99.90
74869;DHT22;63419;42.262;12.210;2023-05-23T09:10:21;21.70;99.90
74869;DHT22;63419;42.262;12.210;2023-05-23T09:12:51;21.60;99.90
74869;DHT22;63419;42.262;12.210;2023-05-23T09:15:18;21.60;99.90
74869;DHT22;63419;42.262;12.210;2023-05-23T09:17:48;21.30;99.90
74869;DHT22;63419;42.262;12.210;2023-05-23T09:20:16;21.50;99.90
74869;DHT22;63419;42.262;12.210;2023-05-23T09:22:46;21.40;99.90
74869;DHT22;63419;42.262;12.210;2023-05-23T09:25:14;21.60;99.90
74869;DHT22;63419;42.262;12.210;2023-05-23T09:27:42;21.40;99.90
74869;DHT22;63419;42.262;12.210;2023-05-23T09:30:13;21.80;99.90
74869;DHT22;63419;42.262;12.210;2023-05-23T09:32:41;22.10;99.90
74869;DHT22;63419;42.262;12.210;2023-05-23T09:35:10;21.60;99.90
74869;DHT22;63419;42.262;12.210;2023-05-23T09:37:43;22.40;99.90
74869;DHT22;63419;42.262;12.210;2023-05-23T09:40:14;22.80;99.90
74869;DHT22;63419;42.262;12.210;2023-05-23T09:42:45;22.60;99.90
74869;DHT22;63419;42.262;12.210;2023-05-23T09:45:15;21.80;99.90
74869;DHT22;63419;42.262;12.210;2023-05-23T09:50:18;22.90;99.90
74869;DHT22;63419;42.262;12.210;2023-05-23T09:52:46;23.00;99.90
74869;DHT22;63419;42.262;12.210;2023-05-23T09:55:14;22.70;99.90
74869;DHT22;63419;42.262;12.210;2023-05-23T09:57:42;22.20;99.90
74869;DHT22;63419;42.262;12.210;2023-05-23T10:00:11;22.10;99.90
74869;DHT22;63419;42.262;12.210;2023-05-23T10:05:32;22.30;99.90
74869;DHT22;63419;42.262;12.210;2023-05-23T10:08:06;23.20;99.90
74869;DHT22;63419;42.262;12.210;2023-05-23T10:13:31;23.60;99.90
74869;DHT22;63419;42.262;12.210;2023-05-23T10:16:06;23.40;99.90
74869;DHT22;63419;42.262;12.210;2023-05-23T10:18:44;22.90;99.90
74869;DHT22;63419;42.262;12.210;2023-05-23T10:21:24;23.20;99.90
74869;DHT22;63419;42.262;12.210;2023-05-23T10:24:00;24.80;99.90
74869;DHT22;63419;42.262;12.210;2023-05-23T10:26:30;25.70;99.90
74869;DHT22;63419;42.262;12.210;2023-05-23T10:28:59;26.70;99.90
74869;DHT22;63419;42.262;12.210;2023-05-23T10:31:28;27.90;99.90
74869;DHT22;63419;42.262;12.210;2023-05-23T10:34:07;28.50;99.90
74869;DHT22;63419;42.262;12.210;2023-05-23T10:42:02;23.40;99.90
74869;DHT22;63419;42.262;12.210;2023-05-23T10:44:37;24.60;99.90
74869;DHT22;63419;42.262;12.210;2023-05-23T10:47:05;26.80;99.90
74869;DHT22;63419;42.262;12.210;2023-05-23T10:52:06;27.40;99.90
74869;DHT22;63419;42.262;12.210;2023-05-23T10:54:36;24.20;99.90
74869;DHT22;63419;42.262;12.210;2023-05-23T10:57:09;23.30;99.90
74869;DHT22;63419;42.262;12.210;2023-05-23T10:59:39;23.40;99.90
74869;DHT22;63419;42.262;12.210;2023-05-23T11:02:13;22.90;99.90
74869;DHT22;63419;42.262;12.210;2023-05-23T11:04:42;22.90;99.90
74869;DHT22;63419;42.262;12.210;2023-05-23T11:14:59;24.10;99.90
74869;DHT22;63419;42.262;12.210;2023-05-23T11:17:30;24.10;99.90
74869;DHT22;63419;42.262;12.210;2023-05-23T11:20:02;23.40;99.90
74869;DHT22;63419;42.262;12.210;2023-05-23T11:22:32;23.90;99.90
74869;DHT22;63419;42.262;12.210;2023-05-23T11:25:06;24.90;99.90
74869;DHT22;63419;42.262;12.210;2023-05-23T11:27:38;23.50;99.90
74869;DHT22;63419;42.262;12.210;2023-05-23T11:30:09;23.70;99.90
74869;DHT22;63419;42.262;12.210;2023-05-23T11:32:40;25.40;99.90
74869;DHT22;63419;42.262;12.210;2023-05-23T11:35:09;27.80;99.90
74869;DHT22;63419;42.262;12.210;2023-05-23T11:37:38;25.90;99.90
74869;DHT22;63419;42.262;12.210;2023-05-23T11:42:42;26.70;99.90
74869;DHT22;63419;42.262;12.210;2023-05-23T11:45:10;26.30;99.90
74869;DHT22;63419;42.262;12.210;2023-05-23T11:47:40;27.00;99.90
74869;DHT22;63419;42.262;12.210;2023-05-23T11:50:09;26.50;99.90
74869;DHT22;63419;42.262;12.210;2023-05-23T11:52:37;25.40;99.90
74869;DHT22;63419;42.262;12.210;2023-05-23T11:55:06;24.00;99.90
74869;DHT22;63419;42.262;12.210;2023-05-23T11:57:38;23.90;99.90
74869;DHT22;63419;42.262;12.210;2023-05-23T12:00:06;24.50;99.90
74869;DHT22;63419;42.262;12.210;2023-05-23T12:02:38;24.00;99.90
74869;DHT22;63419;42.262;12.210;2023-05-23T12:05:10;23.40;99.90
74869;DHT22;63419;42.262;12.210;2023-05-23T12:07:42;24.60;99.90
74869;DHT22;63419;42.262;12.210;2023-05-23T12:10:11;24.20;99.90
74869;DHT22;63419;42.262;12.210;2023-05-23T12:12:40;23.80;99.90
74869;DHT22;63419;42.262;12.210;2023-05-23T12:15:09;24.80;99.90
74869;DHT22;63419;42.262;12.210;2023-05-23T12:17:42;24.80;99.90
74869;DHT22;63419;42.262;12.210;2023-05-23T12:20:12;24.80;99.90
74869;DHT22;63419;42.262;12.210;2023-05-23T12:22:40;25.20;99.90
74869;DHT22;63419;42.262;12.210;2023-05-23T12:25:09;24.90;99.90
74869;DHT22;63419;42.262;12.210;2023-05-23T12:27:39;23.60;99.90
74869;DHT22;63419;42.262;12.210;2023-05-23T12:30:12;23.60;99.90
74869;DHT22;63419;42.262;12.210;2023-05-23T12:32:43;23.70;99.90
74869;DHT22;63419;42.262;12.210;2023-05-23T12:35:13;25.00;99.90
74869;DHT22;63419;42.262;12.210;2023-05-23T12:37:44;23.90;99.90
74869;DHT22;63419;42.262;12.210;2023-05-23T12:45:20;23.30;99.90
74869;DHT22;63419;42.262;12.210;2023-05-23T12:47:49;23.20;99.90
74869;DHT22;63419;42.262;12.210;2023-05-23T12:50:19;22.80;99.90
74869;DHT22;63419;42.262;12.210;2023-05-23T12:52:47;22.90;99.90
74869;DHT22;63419;42.262;12.210;2023-05-23T12:55:14;22.50;99.90
74869;DHT22;63419;42.262;12.210;2023-05-23T12:57:42;22.90;99.90
74869;DHT22;63419;42.262;12.210;2023-05-23T13:00:11;23.30;99.90
74869;DHT22;63419;42.262;12.210;2023-05-23T13:02:39;24.40;99.90
74869;DHT22;63419;42.262;12.210;2023-05-23T13:05:07;25.30;99.90
74869;DHT22;63419;42.262;12.210;2023-05-23T13:07:35;25.00;99.90
74869;DHT22;63419;42.262;12.210;2023-05-23T13:10:04;25.40;99.90
74869;DHT22;63419;42.262;12.210;2023-05-23T13:12:32;25.00;99.90
74869;DHT22;63419;42.262;12.210;2023-05-23T13:15:00;24.30;99.90
74869;DHT22;63419;42.262;12.210;2023-05-23T13:17:27;24.60;99.90
74869;DHT22;63419;42.262;12.210;2023-05-23T13:19:55;24.20;99.90
74869;DHT22;63419;42.262;12.210;2023-05-23T13:22:23;23.70;99.90
74869;DHT22;63419;42.262;12.210;2023-05-23T13:24:50;23.10;99.90
74869;DHT22;63419;42.262;12.210;2023-05-23T13:27:17;24.00;99.90
74869;DHT22;63419;42.262;12.210;2023-05-23T13:29:45;23.80;99.90
74869;DHT22;63419;42.262;12.210;2023-05-23T13:32:12;22.90;99.90
74869;DHT22;63419;42.262;12.210;2023-05-23T13:34:41;23.50;99.90
74869;DHT22;63419;42.262;12.210;2023-05-23T13:37:08;24.40;99.90
74869;DHT22;63419;42.262;12.210;2023-05-23T13:39:36;23.60;99.90
74869;DHT22;63419;42.262;12.210;2023-05-23T13:42:04;23.20;99.90
74869;DHT22;63419;42.262;12.210;2023-05-23T13:44:31;22.90;99.90
74869;DHT22;63419;42.262;12.210;2023-05-23T13:49:41;23.00;99.90
74869;DHT22;63419;42.262;12.210;2023-05-23T13:52:09;22.80;99.90
74869;DHT22;63419;42.262;12.210;2023-05-23T13:54:38;23.50;99.90
74869;DHT22;63419;42.262;12.210;2023-05-23T13:57:05;23.20;99.90
74869;DHT22;63419;42.262;12.210;2023-05-23T13:59:34;23.20;99.90
74869;DHT22;63419;42.262;12.210;2023-05-23T14:02:02;23.20;99.90
74869;DHT22;63419;42.262;12.210;2023-05-23T14:04:29;23.60;99.90
74869;DHT22;63419;42.262;12.210;2023-05-23T14:06:57;24.30;99.90
74869;DHT22;63419;42.262;12.210;2023-05-23T14:09:25;23.90;99.90
74869;DHT22;63419;42.262;12.210;2023-05-23T14:11:54;23.90;99.90
74869;DHT22;63419;42.262;12.210;2023-05-23T14:14:22;23.60;99.90
74869;DHT22;63419;42.262;12.210;2023-05-23T14:16:53;24.40;99.90
74869;DHT22;63419;42.262;12.210;2023-05-23T14:19:20;24.70;99.90
74869;DHT22;63419;42.262;12.210;2023-05-23T14:21:48;22.90;99.90
74869;DHT22;63419;42.262;12.210;2023-05-23T14:24:15;23.40;99.90
74869;DHT22;63419;42.262;12.210;2023-05-23T14:26:42;23.80;99.90
74869;DHT22;63419;42.262;12.210;2023-05-23T14:29:10;23.60;99.90
74869;DHT22;63419;42.262;12.210;2023-05-23T14:31:37;23.10;99.90
74869;DHT22;63419;42.262;12.210;2023-05-23T14:34:05;23.90;99.90
74869;DHT22;63419;42.262;12.210;2023-05-23T14:36:33;23.20;99.90
74869;DHT22;63419;42.262;12.210;2023-05-23T14:39:00;23.50;99.90
74869;DHT22;63419;42.262;12.210;2023-05-23T14:41:29;23.40;99.90
74869;DHT22;63419;42.262;12.210;2023-05-23T14:43:57;23.30;99.90
74869;DHT22;63419;42.262;12.210;2023-05-23T14:46:25;23.40;99.90
74869;DHT22;63419;42.262;12.210;2023-05-23T14:48:52;22.30;99.90
74869;DHT22;63419;42.262;12.210;2023-05-23T14:51:20;22.40;99.90
74869;DHT22;63419;42.262;12.210;2023-05-23T14:54:07;22.60;99.90
74869;DHT22;63419;42.262;12.210;2023-05-23T14:56:35;23.10;99.90
74869;DHT22;63419;42.262;12.210;2023-05-23T14:59:04;23.60;99.90
74869;DHT22;63419;42.262;12.210;2023-05-23T15:01:32;22.90;99.90
74869;DHT22;63419;42.262;12.210;2023-05-23T15:04:04;22.10;99.90
74869;DHT22;63419;42.262;12.210;2023-05-23T15:06:37;21.60;99.90
74869;DHT22;63419;42.262;12.210;2023-05-23T15:09:05;21.50;99.90
74869;DHT22;63419;42.262;12.210;2023-05-23T15:11:34;21.60;99.90
74869;DHT22;63419;42.262;12.210;2023-05-23T15:14:04;21.60;99.90
74869;DHT22;63419;42.262;12.210;2023-05-23T15:16:32;21.60;99.90
74869;DHT22;63419;42.262;12.210;2023-05-23T15:19:03;22.00;99.90
74869;DHT22;63419;42.262;12.210;2023-05-23T15:21:31;21.80;99.90
74869;DHT22;63419;42.262;12.210;2023-05-23T15:23:59;21.30;99.90
74869;DHT22;63419;42.262;12.210;2023-05-23T15:26:26;21.30;99.90
74869;DHT22;63419;42.262;12.210;2023-05-23T15:28:54;21.40;99.90
74869;DHT22;63419;42.262;12.210;2023-05-23T15:31:22;21.50;99.90
74869;DHT22;63419;42.262;12.210;2023-05-23T15:33:49;21.70;99.90
74869;DHT22;63419;42.262;12.210;2023-05-23T15:36:17;21.80;99.90
74869;DHT22;63419;42.262;12.210;2023-05-23T15:38:44;21.20;99.90
74869;DHT22;63419;42.262;12.210;2023-05-23T15:41:12;20.70;99.90
74869;DHT22;63419;42.262;12.210;2023-05-23T15:43:39;20.10;99.90
74869;DHT22;63419;42.262;12.210;2023-05-23T15:46:07;19.70;99.90
74869;DHT22;63419;42.262;12.210;2023-05-23T15:48:34;19.60;99.90
74869;DHT22;63419;42.262;12.210;2023-05-23T15:51:02;19.40;99.90
74869;DHT22;63419;42.262;12.210;2023-05-23T15:53:30;19.10;99.90
74869;DHT22;63419;42.262;12.210;2023-05-23T15:56:00;19.00;99.90
74869;DHT22;63419;42.262;12.210;2023-05-23T15:58:27;18.80;99.90
74869;DHT22;63419;42.262;12.210;2023-05-23T16:00:55;18.60;99.90
74869;DHT22;63419;42.262;12.210;2023-05-23T16:03:22;18.50;99.90
74869;DHT22;63419;42.262;12.210;2023-05-23T16:05:50;18.40;99.90
74869;DHT22;63419;42.262;12.210;2023-05-23T16:08:18;18.20;99.90
74869;DHT22;63419;42.262;12.210;2023-05-23T16:10:45;18.00;99.90